Latest Coastal Weather Observations for Flinders Island Airport

IDV60701

Issued at 5:41 pm EDT Sunday 19 November 2017 (issued every 10 minutes, with the page automatically refreshed every 10 minutes)

About coastal observations | Map of coastal stations | Coastal observations for VIC | Marine services | Other Formats
Station Details ID: 099005 Name: FLINDERS ISLAND AIRPORT Lat: -40.09 Lon: 148.00 Height: 9.0 m
Data from the previous 72 hours. | See also: Recent months at Flinders Island Airport
Date/Time
EDT
Temp
°C
Wind Pressure Rain since
9am
mm
Weather Cloud Vis
km
Sea
Height
m
Swell
Dir  Spd
kts
Gust
kts
hPa Trend Height
m
Period
s
Dir
19/05:30pm 21.2 ENE 14 18 1023.6 - 0.0 - Partly cloudy 10 - - - -
19/05:00pm 21.9 ENE 15 20 1023.5 - 0.0 - Partly cloudy 10 - - - -
19/04:30pm 22.0 ENE 14 20 1023.6 - 0.0 - Partly cloudy 10 - - - -
19/04:00pm 22.3 E 14 20 1023.4 - 0.0 - Partly cloudy 10 - - - -
19/03:30pm 21.7 ENE 16 22 1023.4 - 0.0 - Partly cloudy 10 - - - -
19/03:00pm 22.8 ENE 16 22 1023.6 - 0.0 - Mostly clear 10 - - - -
19/02:30pm 22.4 ENE 14 18 1023.7 - 0.0 - Partly cloudy 10 - - - -
19/02:00pm 22.9 ENE 15 21 1023.6 - 0.0 - Partly cloudy 10 - - - -
19/01:38pm 23.7 ENE 17 28 1023.8 - 0.0 - Partly cloudy 10 - - - -
19/01:30pm 23.5 ENE 18 26 1023.7 - 0.0 - Partly cloudy 10 - - - -
19/01:00pm 23.3 ENE 18 28 1024.1 - 0.0 - Partly cloudy 10 - - - -
19/12:55pm 23.5 NE 18 28 1024.1 - 0.0 - Partly cloudy 10 - - - -
19/12:30pm 23.3 ENE 17 24 1024.0 - 0.0 - Partly cloudy 10 - - - -
19/12:00pm 24.1 NE 17 26 1024.0 - 0.0 - Mostly cloudy 10 - - - -
19/11:30am 22.9 ENE 16 22 1024.1 - 0.0 - Partly cloudy 10 - - - -
19/11:00am 21.8 ENE 12 19 1024.1 - 0.0 - Partly cloudy 10 - - - -
19/10:30am 22.1 NE 17 23 1023.9 - 0.0 - Partly cloudy 10 - - - -
19/10:00am 21.5 NE 17 25 1024.0 - 0.0 - Partly cloudy 10 - - - -
19/09:30am 21.5 NE 15 21 1024.3 - 0.0 - Partly cloudy 10 - - - -
19/09:00am 21.5 NE 13 19 1024.2 - 0.0 - Cloudy 10 - - - -
19/08:59am 21.4 NE 13 19 1024.2 - 0.0 - Partly cloudy 10 - - - -
19/08:30am 20.8 NE 14 18 1023.8 - 0.0 - Partly cloudy 10 - - - -
19/08:00am 20.2 ENE 12 16 1023.5 - 0.0 - Partly cloudy 10 - - - -
19/07:30am 19.3 ENE 13 17 1023.1 - 0.0 - Partly cloudy 10 - - - -
19/07:18am 18.8 ENE 11 19 1023.0 - 0.0 - Partly cloudy 10 - - - -
19/07:00am 18.0 ENE 12 18 1022.7 - 0.0 - Partly cloudy 10 - - - -
19/06:30am 17.2 ENE 12 19 1022.5 - 0.0 - Partly cloudy 10 - - - -
19/06:00am 16.8 ENE 10 14 1022.5 - 0.0 - - 10 - - - -
19/05:30am 16.8 NE 12 15 1022.3 - 0.0 - - 10 - - - -
19/05:00am 16.5 ENE 9 14 1022.2 - 0.0 - - 10 - - - -
19/04:30am 17.0 ENE 10 17 1022.1 - 0.0 - - 10 - - - -
19/04:00am 16.8 ENE 12 17 1022.1 - 0.0 - - 10 - - - -
19/03:30am 17.0 ENE 12 17 1022.2 - 0.0 - - 10 - - - -
19/03:00am 17.3 ENE 12 15 1022.1 - 0.0 - Mostly clear 10 - - - -
19/02:30am 17.3 ENE 11 16 1022.4 - 0.0 - Partly cloudy 10 - - - -
19/02:00am 17.2 ENE 12 19 1022.5 - 0.0 - Partly cloudy 10 - - - -
19/01:57am 17.2 ENE 11 16 1022.5 - 0.0 - Partly cloudy 10 - - - -
19/01:40am 17.1 ENE 10 14 1022.7 - 0.0 - Partly cloudy 10 - - - -
19/01:30am 17.1 ENE 11 16 1022.7 - 0.0 - Partly cloudy 10 - - - -
19/01:00am 17.0 ENE 11 17 1022.7 - 0.0 - Partly cloudy 10 - - - -
19/12:54am 17.1 ENE 10 14 1022.8 - 0.0 - Partly cloudy 10 - - - -
19/12:30am 17.2 ENE 11 16 1022.8 - 0.0 - Partly cloudy 10 - - - -
19/12:00am 17.3 ENE 12 16 1022.9 - 0.0 - Partly cloudy 10 - - - -
 
Date/Time
EDT
Temp
°C
Wind Pressure Rain since
9am
mm
Weather Cloud Vis
km
Sea
Height
m
Swell
Dir  Spd
kts
Gust
kts
hPa Trend Height
m
Period
s
Dir
18/11:30pm 17.2 ENE 10 15 1022.8 - 0.0 - Partly cloudy 10 - - - -
18/11:00pm 17.4 ENE 10 15 1022.5 - 0.0 - Partly cloudy 10 - - - -
18/10:30pm 17.3 ENE 13 21 1022.0 - 0.0 - Partly cloudy 10 - - - -
18/10:12pm 17.3 ENE 13 20 1022.1 - 0.0 - Partly cloudy 10 - - - -
18/10:00pm 17.4 ENE 13 17 1022.1 - 0.0 - Partly cloudy 10 - - - -
18/09:30pm 17.3 ENE 14 20 1022.2 - 0.0 - Partly cloudy 10 - - - -
18/09:00pm 17.3 ENE 14 19 1021.9 - 0.0 - - 10 - - - -
18/08:30pm 17.4 ENE 13 18 1021.8 - 0.0 - - 10 - - - -
18/08:00pm 17.9 ENE 13 19 1021.7 - 0.0 - Partly cloudy 10 - - - -
18/07:56pm 18.0 ENE 13 18 1021.6 - 0.0 - Partly cloudy 10 - - - -
18/07:32pm 18.6 ENE 13 20 1021.6 - 0.0 - Partly cloudy 10 - - - -
18/07:30pm 18.6 ENE 14 19 1021.5 - 0.0 - Partly cloudy 10 - - - -
18/07:00pm 19.0 ENE 14 19 1021.2 - 0.0 - Partly cloudy 10 - - - -
18/06:30pm 19.8 ENE 13 19 1020.6 - 0.0 - Partly cloudy 10 - - - -
18/06:00pm 20.3 ENE 16 23 1020.5 - 0.0 - - 10 - - - -
18/05:30pm 21.2 ENE 17 24 1020.5 - 0.0 - - 10 - - - -
18/05:00pm 20.4 ENE 20 28 1020.5 - 0.0 - - 10 - - - -
18/04:34pm 20.6 ENE 20 31 1020.6 - 0.0 - - 10 - - - -
18/04:30pm 20.6 ENE 19 28 1020.5 - 0.0 - - 10 - - - -
18/04:00pm 21.7 NE 21 29 1020.5 - 0.0 - Partly cloudy 10 - - - -
18/03:30pm 22.3 NE 21 28 1020.5 - 0.0 - Partly cloudy 10 - - - -
18/03:03pm 22.0 NE 19 29 1020.7 - 0.0 - Partly cloudy 10 - - - -
18/03:00pm 22.4 NE 19 28 1020.8 - 0.0 - Mostly clear 10 - - - -
18/02:59pm 22.1 NE 18 28 1020.8 - 0.0 - Partly cloudy 10 - - - -
18/02:30pm 21.5 NE 22 31 1020.8 - 0.0 - - 10 - - - -
18/02:00pm 22.4 NE 24 32 1021.0 - 0.0 - - 10 - - - -
18/01:48pm 22.8 NE 21 31 1021.0 - 0.0 - Partly cloudy 10 - - - -
18/01:30pm 21.9 NE 25 32 1021.1 - 0.0 - Partly cloudy 10 - - - -
18/01:10pm 22.9 ENE 21 31 1021.3 - 0.0 - Partly cloudy 10 - - - -
18/01:00pm 22.3 NE 22 29 1021.3 - 0.0 - Partly cloudy 10 - - - -
18/12:36pm 21.6 NE 21 31 1021.5 - 0.0 - Partly cloudy 10 - - - -
18/12:30pm 23.3 NE 22 31 1021.5 - 0.0 - Partly cloudy 10 - - - -
18/12:03pm 21.4 NE 23 33 1021.6 - 0.0 - Partly cloudy 10 - - - -
18/12:00pm 21.9 NE 24 33 1021.5 - 0.0 - Cloudy 10 - - - -
18/11:37am 21.8 NE 22 32 1021.5 - 0.0 - Partly cloudy 10 - - - -
18/11:30am 21.7 NE 23 32 1021.5 - 0.0 - Partly cloudy 10 - - - -
18/11:12am 21.8 ENE 22 32 1021.4 - 0.0 - Partly cloudy 10 - - - -
18/11:00am 21.7 NE 23 32 1021.2 - 0.0 - Partly cloudy 10 - - - -
18/10:33am 21.9 NE 22 32 1021.1 - 0.0 - Partly cloudy 10 - - - -
18/10:30am 21.6 ENE 22 31 1021.2 - 0.0 - Partly cloudy 10 - - - -
18/10:16am 21.7 NE 24 34 1021.1 - 0.0 - Partly cloudy 10 - - - -
18/10:00am 21.0 ENE 23 30 1021.0 - 0.0 - Partly cloudy 10 - - - -
18/09:37am 21.3 NE 23 33 1020.9 - 0.0 - Partly cloudy 10 - - - -
18/09:30am 21.4 ENE 22 31 1020.8 - 0.0 - Partly cloudy 10 - - - -
18/09:00am 20.7 NE 23 34 1021.1 - 0.0 - Cloudy 10 - - - -
18/08:38am 20.7 NE 19 29 1021.0 - 0.0 - Partly cloudy 10 - - - -
18/08:30am 20.4 NE 21 29 1020.9 - 0.0 - Partly cloudy 10 - - - -
18/08:26am 20.6 NE 19 29 1020.9 - 0.0 - Partly cloudy 10 - - - -
18/08:00am 20.4 ENE 18 27 1020.6 - 0.0 - Partly cloudy 10 - - - -
18/07:58am 20.3 ENE 18 25 1020.5 - 0.0 - Partly cloudy 10 - - - -
18/07:30am 19.5 ENE 17 26 1020.3 - 0.0 - Partly cloudy 10 - - - -
18/07:00am 19.0 ENE 14 21 1020.1 - 0.0 - Cloudy 10 - - - -
18/06:52am 18.9 ENE 15 26 1020.1 - 0.0 - Cloudy 10 - - - -
18/06:30am 18.6 ENE 14 21 1019.7 - 0.0 - Partly cloudy 10 - - - -
18/06:00am 18.3 ENE 18 27 1019.4 - 0.0 - Cloudy 10 - - - -
18/05:30am 18.1 ENE 18 28 1019.1 - 0.0 - Partly cloudy 10 - - - -
18/05:04am 18.1 ENE 19 33 1018.7 - 0.0 - Partly cloudy 10 - - - -
18/05:00am 18.0 ENE 19 28 1018.7 - 0.0 - Partly cloudy 10 - - - -
18/04:54am 18.0 ENE 21 28 1018.6 - 0.0 - Partly cloudy 10 - - - -
18/04:30am 18.1 ENE 19 29 1018.6 - 0.0 - Partly cloudy 10 - - - -
18/04:00am 18.1 ENE 17 28 1018.3 - 0.0 - Partly cloudy 10 - - - -
18/03:31am 18.1 ENE 18 28 1018.1 - 0.0 - Partly cloudy 10 - - - -
18/03:30am 18.1 ENE 18 27 1018.2 - 0.0 - Partly cloudy 10 - - - -
18/03:00am 18.2 ENE 21 32 1018.2 - 0.0 - Mostly cloudy 10 - - - -
18/02:30am 18.3 ENE 18 28 1018.3 - 0.0 - Partly cloudy 10 - - - -
18/02:24am 18.3 ENE 18 28 1018.3 - 0.0 - Partly cloudy 10 - - - -
18/02:00am 18.4 ENE 16 27 1018.6 - 0.0 - Partly cloudy 10 - - - -
18/01:30am 18.3 ENE 16 27 1018.7 - 0.0 - Partly cloudy 10 - - - -
18/01:29am 18.3 ENE 16 27 1018.8 - 0.0 - Partly cloudy 10 - - - -
18/01:00am 18.2 ENE 18 27 1018.8 - 0.0 - Partly cloudy 10 - - - -
18/12:49am 18.1 ENE 16 27 1018.8 - 0.0 - Partly cloudy 10 - - - -
18/12:47am 18.1 ENE 15 23 1018.9 - 0.0 - Partly cloudy 10 - - - -
18/12:30am 18.0 ENE 17 24 1018.6 - 0.0 - Partly cloudy 10 - - - -
18/12:19am 18.0 ENE 17 23 1018.7 - 0.0 - Partly cloudy 10 - - - -
18/12:09am 18.0 ENE 18 28 1018.6 - 0.0 - Partly cloudy 10 - - - -
18/12:00am 18.0 ENE 17 26 1018.9 - 0.0 - Cloudy 10 - - - -
 
Date/Time
EDT
Temp
°C
Wind Pressure Rain since
9am
mm
Weather Cloud Vis
km
Sea
Height
m
Swell
Dir  Spd
kts
Gust
kts
hPa Trend Height
m
Period
s
Dir
17/11:40pm 18.1 ENE 18 26 1019.0 - 0.0 - Partly cloudy 10 - - - -
17/11:30pm 18.2 ENE 17 25 1018.9 - 0.0 - Partly cloudy 10 - - - -
17/11:05pm 18.4 ENE 17 22 1019.0 - 0.0 - Partly cloudy 10 - - - -
17/11:00pm 18.3 ENE 16 22 1019.0 - 0.0 - Partly cloudy 10 - - - -
17/10:55pm 18.3 ENE 16 22 1019.0 - 0.0 - Partly cloudy 10 - - - -
17/10:45pm 18.4 ENE 15 22 1018.9 - 0.0 - Partly cloudy 10 - - - -
17/10:30pm 18.5 ENE 17 26 1018.9 - 0.0 - Partly cloudy 10 - - - -
17/10:21pm 18.5 ENE 15 26 1019.1 - 0.0 - Partly cloudy 10 - - - -
17/10:00pm 18.6 ENE 17 25 1019.2 - 0.0 - Partly cloudy 10 - - - -
17/09:49pm 18.5 ENE 19 26 1018.9 - 0.0 - Partly cloudy 10 - - - -
17/09:46pm 18.4 ENE 18 26 1018.9 - 0.0 - Partly cloudy 10 - - - -
17/09:30pm 18.6 ENE 20 27 1018.4 - 0.0 - Partly cloudy 10 - - - -
17/09:00pm 18.6 ENE 21 28 1018.2 - 0.0 - Cloudy 10 - - - -
17/08:51pm 18.6 ENE 21 28 1018.1 - 0.0 - Partly cloudy 10 - - - -
17/08:30pm 18.6 ENE 21 31 1017.9 - 0.0 - Partly cloudy 10 - - - -
17/08:12pm 18.6 ENE 18 28 1018.2 - 0.0 - Partly cloudy 10 - - - -
17/08:06pm 18.6 ENE 17 26 1018.1 - 0.0 - Partly cloudy 10 - - - -
17/08:00pm 18.5 ENE 17 26 1018.1 - 0.0 - Partly cloudy 10 - - - -
17/07:44pm 18.8 ENE 17 26 1018.0 - 0.0 - Partly cloudy 10 - - - -
17/07:30pm 19.1 ENE 17 23 1017.9 - 0.0 - Partly cloudy 10 - - - -
17/07:01pm 19.7 ENE 19 30 1017.9 - 0.0 - Partly cloudy 10 - - - -
17/07:00pm 19.7 ENE 18 26 1017.9 - 0.0 - Partly cloudy 10 - - - -
17/06:30pm 19.9 ENE 17 28 1017.7 - 0.0 - Partly cloudy 10 - - - -
17/06:19pm 19.7 ENE 15 25 1017.6 - 0.0 - Partly cloudy 10 - - - -
17/06:00pm 19.9 ENE 15 21 1017.8 - 0.0 - Cloudy 10 - - - -
17/05:30pm 20.0 ENE 15 22 1017.8 - 0.0 - Partly cloudy 10 - - - -
17/05:00pm 20.6 ENE 16 27 1017.9 - 0.0 - Partly cloudy 10 - - - -
17/04:57pm 20.9 ENE 15 27 1018.0 - 0.0 - Partly cloudy 10 - - - -
17/04:30pm 20.7 ENE 15 19 1017.7 - 0.0 - Partly cloudy 10 - - - -
17/04:00pm 19.5 ENE 13 18 1017.5 - 0.0 - Partly cloudy 10 - - - -
17/03:56pm 19.3 ENE 12 18 1017.6 - 0.0 - Partly cloudy 10 - - - -
17/03:30pm 19.4 NE 20 26 1018.0 - 0.0 - Partly cloudy 7 - - - -
17/03:19pm 19.7 NE 19 29 1017.9 - 0.0 - Partly cloudy 10 - - - -
17/03:00pm 20.3 ENE 18 26 1017.8 - 0.0 - Cloudy 10 - - - -
17/02:30pm 21.4 ENE 18 25 1017.9 - 0.0 - Partly cloudy 10 - - - -
17/02:01pm 21.6 ENE 19 32 1018.0 - 0.0 - Partly cloudy 10 - - - -
17/02:00pm 21.6 ENE 19 27 1018.0 - 0.0 - Partly cloudy 10 - - - -
17/01:30pm 22.5 ENE 17 23 1018.2 - 0.0 - Partly cloudy 10 - - - -
17/01:00pm 22.3 ENE 18 26 1018.5 - 0.0 - Partly cloudy 10 - - - -
17/12:30pm 21.4 ENE 16 24 1018.6 - 0.0 - Partly cloudy 10 - - - -
17/12:07pm 20.9 ENE 16 22 1018.8 - 0.0 - Partly cloudy 10 - - - -
17/12:00pm 21.0 ENE 18 23 1018.9 - 0.0 - Cloudy 10 - - - -
17/11:56am 21.0 ENE 18 23 1018.9 - 0.0 - Partly cloudy 10 - - - -
17/11:34am 20.6 ENE 17 26 1019.1 - 0.0 - Partly cloudy 10 - - - -
17/11:30am 20.9 ENE 18 26 1019.1 - 0.0 - Partly cloudy 10 - - - -
17/11:00am 20.2 ENE 18 26 1019.1 - 0.0 - Partly cloudy 10 - - - -
17/10:47am 20.3 ENE 18 26 1018.8 - 0.0 - Partly cloudy 10 - - - -
17/10:44am 21.0 ENE 17 25 1018.8 - 0.0 - Partly cloudy 10 - - - -
17/10:30am 20.6 ENE 19 26 1018.8 - 0.0 - Partly cloudy 10 - - - -
17/10:00am 20.3 ENE 18 30 1018.7 - 0.0 - Partly cloudy 10 - - - -
17/09:54am 19.8 ENE 19 30 1018.7 - 0.0 - Partly cloudy 10 - - - -
17/09:30am 19.8 ENE 15 22 1018.8 - 0.0 - Partly cloudy 10 - - - -
17/09:09am 20.2 E 15 20 1018.7 - 0.0 - Partly cloudy 10 - - - -
17/09:00am 20.4 E 17 24 1018.7 - 0.0 - Cloudy 10 - - - -
17/08:30am 19.8 ENE 15 23 1018.5 - 0.0 - Partly cloudy 10 - - - -
17/08:00am 19.6 ENE 17 22 1018.4 - 0.0 - Partly cloudy 10 - - - -
17/07:30am 18.8 ENE 17 26 1018.0 - 0.0 - Partly cloudy 10 - - - -
17/07:16am 18.6 ENE 16 28 1018.0 - 0.0 - Partly cloudy 10 - - - -
17/07:00am 18.4 ENE 16 24 1017.9 - 0.0 - Partly cloudy 10 - - - -
17/06:30am 18.2 ENE 16 22 1017.9 - 0.0 - Partly cloudy 10 - - - -
17/06:26am 18.2 ENE 16 26 1017.8 - 0.0 - Partly cloudy 10 - - - -
17/06:00am 18.0 ENE 15 24 1017.6 - 0.0 - Cloudy 10 - - - -
17/05:30am 17.9 E 15 23 1017.2 - 0.0 - Partly cloudy 10 - - - -
17/05:00am 18.1 ENE 16 24 1017.0 - 0.0 - Partly cloudy 10 - - - -
17/04:40am 18.0 ENE 17 27 1016.9 - 0.0 - Partly cloudy 10 - - - -
17/04:30am 18.1 ENE 16 24 1016.9 - 0.0 - Partly cloudy 10 - - - -
17/04:02am 18.1 ENE 16 26 1016.9 - 0.0 - Partly cloudy 10 - - - -
17/04:00am 18.2 ENE 17 26 1016.9 - 0.0 - Cloudy 10 - - - -
17/03:30am 18.1 ENE 17 25 1016.8 - 0.0 - Partly cloudy 10 - - - -
17/03:00am 18.0 ENE 18 27 1016.6 - 0.0 - Cloudy 10 - - - -
17/02:30am 18.1 ENE 18 27 1016.6 - 0.0 - Partly cloudy 10 - - - -
17/02:07am 18.3 ENE 18 29 1016.6 - 0.0 - Partly cloudy 10 - - - -
17/02:00am 18.3 ENE 18 26 1016.7 - 0.0 - Partly cloudy 10 - - - -
17/01:33am 18.3 ENE 17 27 1016.8 - 0.0 - Partly cloudy 10 - - - -
17/01:30am 18.2 ENE 16 22 1016.8 - 0.0 - Partly cloudy 10 - - - -
17/01:04am 18.3 ENE 16 26 1016.8 - 0.0 - Partly cloudy 10 - - - -
17/01:00am 18.2 ENE 16 22 1016.8 - 0.0 - Partly cloudy 10 - - - -
17/12:32am 18.2 ENE 16 26 1016.8 - 0.0 - Partly cloudy 10 - - - -
17/12:30am 18.2 ENE 17 26 1016.8 - 0.0 - Partly cloudy 10 - - - -
17/12:29am 18.2 ENE 16 26 1016.7 - 0.0 - Partly cloudy 10 - - - -
17/12:00am 18.2 ENE 15 22 1016.7 - 0.0 - Mostly cloudy 10 - - - -
 
Date/Time
EDT
Temp
°C
Wind Pressure Rain since
9am
mm
Weather Cloud Vis
km
Sea
Height
m
Swell
Dir  Spd
kts
Gust
kts
hPa Trend Height
m
Period
s
Dir
16/11:30pm 18.3 ENE 19 31 1016.6 - 0.0 - Cloudy 10 - - - -
16/11:01pm 18.4 ENE 17 27 1016.6 - 0.0 - Cloudy 10 - - - -
16/11:00pm 18.4 ENE 18 27 1016.6 - 0.0 - Cloudy 10 - - - -
16/10:53pm 18.4 ENE 16 27 1016.5 - 0.0 - Cloudy 10 - - - -
16/10:30pm 18.5 E 14 23 1016.4 - 0.0 - Partly cloudy 10 - - - -
16/10:00pm 18.3 ENE 15 20 1016.2 - 0.0 - Partly cloudy 10 - - - -
16/09:51pm 18.2 ENE 15 25 1016.3 - 0.0 - Partly cloudy 10 - - - -
16/09:30pm 18.2 ENE 14 22 1016.2 - 0.0 - Partly cloudy 10 - - - -
16/09:00pm 18.1 E 8 14 1016.0 - 0.0 - Cloudy 10 - - - -
16/08:30pm 18.3 E 9 15 1015.9 - 0.0 - Cloudy 10 - - - -
16/08:00pm 18.6 E 11 20 1015.5 - 0.0 - Cloudy 10 - - - -
16/07:30pm 18.8 E 16 22 1015.4 - 0.0 - Partly cloudy 10 - - - -
16/07:00pm 19.0 E 19 27 1014.6 - 0.0 - Partly cloudy 10 - - - -
16/06:32pm 19.4 E 15 25 1014.5 - 0.0 - Partly cloudy 10 - - - -
16/06:30pm 19.2 E 16 25 1014.5 - 0.0 - Partly cloudy 10 - - - -
16/06:28pm 19.4 E 16 25 1014.5 - 0.0 - Partly cloudy 10 - - - -
16/06:09pm 19.3 E 19 30 1014.1 - 0.0 - Partly cloudy 10 - - - -
16/06:00pm 19.3 E 17 27 1014.0 - 0.0 - Mostly cloudy 10 - - - -
16/05:56pm 19.3 E 18 27 1013.9 - 0.0 - Partly cloudy 10 - - - -
16/05:49pm 19.5 E 15 25 1013.8 - 0.0 - Partly cloudy 10 - - - -
16/05:43pm 19.5 E 13 20 1013.8 - 0.0 - Partly cloudy 10 - - - -

Other Formats:

Comma delimited format used in spreadsheet applications
http://www.bom.gov.au/fwo/IDV60701/IDV60701.94980.axf

JavaScript Object Notation format (JSON) in row-major order
http://www.bom.gov.au/fwo/IDV60701/IDV60701.94980.json